AirNav   Everest Fuels
 
 997 users online  

5IL2 Panther Field Airport
Pinckneyville, Illinois, USA

GOING TO PINCKNEYVILLE?


FAA INFORMATION EFFECTIVE 01 DECEMBER 2022

Location

FAA Identifier: 5IL2
Lat/Long: 38-03-52.5550N 089-23-14.7650W
38-03.875917N 089-23.246083W
38.0645986,-89.3874347
(estimated)
Elevation: 440 ft. / 134 m (estimated)
Variation: 00E (1995)
From city: 1 mile S of PINCKNEYVILLE, IL
Time zone: UTC -6 (UTC -5 during Daylight Saving Time)
Zip code: 62274

Airport Operations

Airport use: Private use. Permission required prior to landing
Activation date: 05/2000
Control tower: no
ARTCC: KANSAS CITY CENTER
FSS: COLUMBIA FLIGHT SERVICE STATION
Attendance: UNATNDD
Wind indicator: yes
Segmented circle: no

Airport Communications

WX AWOS-3 at SAR (16 nm W): 118.375 (618-443-3296)
WX ASOS at MDH (18 nm S): PHONE 618-529-1821

Nearby radio navigation aids

VOR radial/distance  VOR name  Freq  Var
ENLr203/23.9CENTRALIA VORTAC115.0004E

 
NDB name  Hdg/Dist  Freq  Var  ID
CABBI331/13.538801WMD -- -..

Airport Services

Runway Information

Runway 18/36

Dimensions: 2000 x 70 ft. / 610 x 21 m
Surface: turf
RUNWAY 18  RUNWAY 36
Latitude: 38-04.040667N38-03.711167N
Longitude: 089-23.242167W089-23.250000W
Elevation: 440.0 ft.433.0 ft.
Traffic pattern: leftleft
Runway heading: 181001
Touchdown point: yes, no lightsyes, no lights

Airport Ownership and Management from official FAA records

Ownership: Privately-owned
Owner: WILLIAM STOTLAR
3209 DALMATION RD
PINCKNEYVILLE, IL 62274
Phone (618) 521-7275
Manager: WILLIAM STOTLAR
3209 DALMATION RD
PINCKNEYVILLE, IL 62274
Phone 618-521-7275

Airport Operational Statistics

Aircraft based on the field: 1
Single engine airplanes: 1
    

Additional Remarks

FOR CD CTC KANSAS CITY ARTCC AT 913-254-8508.

Instrument Procedures

There are no published instrument procedures at 5IL2.

Some nearby airports with instrument procedures:

KPJY - Pinckneyville/Du Quoin Airport (5 nm S)
KSAR - Sparta Community Airport-Hunter Field (16 nm W)
KMDH - Southern Illinois Airport (18 nm S)
H96 - Benton Municipal Airport (22 nm E)
KPCD - Perryville Regional Airport (25 nm SW)
 
Loc | Ops | Rwys | IFR | FBO | Links
Com | Nav | Svcs | Stats | Notes
Area around 5IL2 (Panther Field Airport)
 
Road maps at: MapQuest Bing Google
 
Aerial photo
No photo
 
Sectional chart

 
Airport distance calculator
Flying to Panther Field Airport? Find the distance to fly.

From to 5IL2

Sunrise and sunset
Times for 04-Dec-2022
 Local
(UTC-6)
 Zulu
(UTC)
Morning civil twilight06:3012:30
Sunrise06:5912:59
Sunset16:3722:37
Evening civil twilight17:0623:06

Current date and time
Zulu (UTC)  05-Dec-2022 00:59:57
Local (UTC-6)  04-Dec-2022 18:59:57
 
METAR
KSAR 
16nm W 
050035Z AUTO 15003KT 10SM CLR 01/M05 A3018 RMK AO2 T00071054
KMDH 
18nm S 
050052Z 16004KT 10SM CLR 00/M06 A3018 RMK AO2 SLP225 T00001056
KPCD 
25nm SW 
050055Z AUTO 12004KT 10SM CLR M01/M03 A3016 RMK AO2 T10081035
KMWA 
26nm SE 
050045Z 14005KT 10SM OVC200 02/M05 A3018
KMVN 
29nm NE 
042356Z AUTO 00000KT 10SM CLR M02/M06 A3019 RMK AO2 SLP233 T10221056 10044 21022 55006 FZRANO
TAF
KMVN 
29nm NE 
041720Z 0418/0518 VRB02KT P6SM BKN250 FM051600 16007KT P6SM BKN025
KBLV 
35nm NW 
050000Z 0500/0606 VRB06KT 9999 BKN250 QNH2999INS BECMG 0509/0510 VRB06KT 9999 BKN020 OVC030 QNH2995INS BECMG 0512/0513 18009KT 9999 SCT020 BKN030 QNH2989INS BECMG 0517/0518 19010G15KT 9999 BKN030 QNH2985INS BECMG 0519/0520 20006KT 9999 BKN015 QNH2983INS BECMG 0600/0601 VRB06KT 9999 BKN005 QNH2991INS TX08/0521Z TNM02/0507Z
NOTAMs
Click for the latest NOTAMs
NOTAMs are issued by the DoD/FAA and will open in a separate window not controlled by AirNav.

 

 
 

Would you like to see your business listed on this page?

 If your business provides an interesting product or service to pilots, flight crews, aircraft, or users of the Panther Field Airport, you should consider listing it here.  To start the listing process, click on the button below
 
Add a business
 

Other Pages about Panther Field Airport

Update a link
 
Copyright © AirNav, LLC. All rights reserved. Privacy Policy  Contact